sensor_id;sensor_type;location;lat;lon;timestamp;temperature;humidity
1614;DHT22;800;48.824;9.346;2022-12-17T00:00:45;3.90;51.30
1614;DHT22;800;48.824;9.346;2022-12-17T00:03:29;3.80;51.50
1614;DHT22;800;48.824;9.346;2022-12-17T00:06:13;3.70;51.50
1614;DHT22;800;48.824;9.346;2022-12-17T00:08:57;3.60;51.60
1614;DHT22;800;48.824;9.346;2022-12-17T00:11:41;3.60;51.60
1614;DHT22;800;48.824;9.346;2022-12-17T00:14:25;3.50;52.00
1614;DHT22;800;48.824;9.346;2022-12-17T00:17:10;3.50;52.40
1614;DHT22;800;48.824;9.346;2022-12-17T00:19:53;3.40;52.50
1614;DHT22;800;48.824;9.346;2022-12-17T00:22:38;3.40;52.60
1614;DHT22;800;48.824;9.346;2022-12-17T00:25:21;3.50;52.60
1614;DHT22;800;48.824;9.346;2022-12-17T00:28:10;3.40;52.70
1614;DHT22;800;48.824;9.346;2022-12-17T00:30:54;3.50;52.90
1614;DHT22;800;48.824;9.346;2022-12-17T00:33:38;3.40;52.50
1614;DHT22;800;48.824;9.346;2022-12-17T00:36:22;3.40;52.20
1614;DHT22;800;48.824;9.346;2022-12-17T00:39:06;3.40;52.30
1614;DHT22;800;48.824;9.346;2022-12-17T00:41:50;3.40;52.40
1614;DHT22;800;48.824;9.346;2022-12-17T00:44:34;3.30;52.30
1614;DHT22;800;48.824;9.346;2022-12-17T00:47:18;3.20;52.20
1614;DHT22;800;48.824;9.346;2022-12-17T00:50:02;3.20;51.90
1614;DHT22;800;48.824;9.346;2022-12-17T00:52:47;3.20;51.70
1614;DHT22;800;48.824;9.346;2022-12-17T00:55:31;3.10;51.70
1614;DHT22;800;48.824;9.346;2022-12-17T00:58:15;3.00;51.90
1614;DHT22;800;48.824;9.346;2022-12-17T01:01:00;3.00;52.10
1614;DHT22;800;48.824;9.346;2022-12-17T01:03:44;3.00;52.10
1614;DHT22;800;48.824;9.346;2022-12-17T01:06:28;2.90;52.00
1614;DHT22;800;48.824;9.346;2022-12-17T01:09:12;3.00;51.80
1614;DHT22;800;48.824;9.346;2022-12-17T01:11:56;2.90;51.80
1614;DHT22;800;48.824;9.346;2022-12-17T01:14:42;2.80;52.10
1614;DHT22;800;48.824;9.346;2022-12-17T01:17:25;2.80;52.00
1614;DHT22;800;48.824;9.346;2022-12-17T01:20:09;2.80;51.90
1614;DHT22;800;48.824;9.346;2022-12-17T01:22:53;2.80;51.80
1614;DHT22;800;48.824;9.346;2022-12-17T01:25:38;2.70;51.50
1614;DHT22;800;48.824;9.346;2022-12-17T01:28:23;2.60;51.50
1614;DHT22;800;48.824;9.346;2022-12-17T01:31:07;2.60;51.80
1614;DHT22;800;48.824;9.346;2022-12-17T01:33:52;2.50;51.80
1614;DHT22;800;48.824;9.346;2022-12-17T01:36:36;2.40;51.70
1614;DHT22;800;48.824;9.346;2022-12-17T01:39:20;2.40;51.70
1614;DHT22;800;48.824;9.346;2022-12-17T01:42:04;2.40;51.70
1614;DHT22;800;48.824;9.346;2022-12-17T01:44:54;2.40;51.80
1614;DHT22;800;48.824;9.346;2022-12-17T01:48:15;2.40;51.60
1614;DHT22;800;48.824;9.346;2022-12-17T01:50:53;2.40;51.50
1614;DHT22;800;48.824;9.346;2022-12-17T01:53:49;2.40;51.30
1614;DHT22;800;48.824;9.346;2022-12-17T01:56:35;2.40;51.00
1614;DHT22;800;48.824;9.346;2022-12-17T01:59:25;2.40;50.80
1614;DHT22;800;48.824;9.346;2022-12-17T02:02:12;2.40;50.80
1614;DHT22;800;48.824;9.346;2022-12-17T02:04:56;2.30;50.70
1614;DHT22;800;48.824;9.346;2022-12-17T02:11:02;2.20;51.00
1614;DHT22;800;48.824;9.346;2022-12-17T02:13:59;2.20;51.40
1614;DHT22;800;48.824;9.346;2022-12-17T02:16:52;2.30;51.30
1614;DHT22;800;48.824;9.346;2022-12-17T02:25:51;2.10;51.10
1614;DHT22;800;48.824;9.346;2022-12-17T02:28:38;2.10;51.10
1614;DHT22;800;48.824;9.346;2022-12-17T02:31:25;2.10;51.30
1614;DHT22;800;48.824;9.346;2022-12-17T02:34:10;2.10;51.30
1614;DHT22;800;48.824;9.346;2022-12-17T02:36:54;2.10;51.50
1614;DHT22;800;48.824;9.346;2022-12-17T02:39:38;2.20;51.70
1614;DHT22;800;48.824;9.346;2022-12-17T02:42:24;2.20;51.60
1614;DHT22;800;48.824;9.346;2022-12-17T02:45:09;2.20;51.60
1614;DHT22;800;48.824;9.346;2022-12-17T02:47:55;2.20;51.60
1614;DHT22;800;48.824;9.346;2022-12-17T02:50:41;2.20;51.90
1614;DHT22;800;48.824;9.346;2022-12-17T02:53:25;2.20;52.00
1614;DHT22;800;48.824;9.346;2022-12-17T02:56:09;2.20;52.10
1614;DHT22;800;48.824;9.346;2022-12-17T02:58:53;2.20;52.20
1614;DHT22;800;48.824;9.346;2022-12-17T03:01:37;2.20;52.50
1614;DHT22;800;48.824;9.346;2022-12-17T03:04:21;2.20;52.60
1614;DHT22;800;48.824;9.346;2022-12-17T03:07:05;2.30;52.50
1614;DHT22;800;48.824;9.346;2022-12-17T03:09:49;2.30;52.30
1614;DHT22;800;48.824;9.346;2022-12-17T03:12:33;2.40;52.30
1614;DHT22;800;48.824;9.346;2022-12-17T03:15:18;2.40;52.30
1614;DHT22;800;48.824;9.346;2022-12-17T03:18:02;2.40;52.20
1614;DHT22;800;48.824;9.346;2022-12-17T03:20:46;2.40;52.50
1614;DHT22;800;48.824;9.346;2022-12-17T03:23:30;2.30;51.60
1614;DHT22;800;48.824;9.346;2022-12-17T03:26:14;2.20;52.40
1614;DHT22;800;48.824;9.346;2022-12-17T03:28:58;2.20;52.50
1614;DHT22;800;48.824;9.346;2022-12-17T03:31:42;2.30;52.50
1614;DHT22;800;48.824;9.346;2022-12-17T03:34:26;2.40;52.40
1614;DHT22;800;48.824;9.346;2022-12-17T03:37:10;2.40;52.30
1614;DHT22;800;48.824;9.346;2022-12-17T03:39:54;2.40;52.40
1614;DHT22;800;48.824;9.346;2022-12-17T03:42:38;2.40;52.40
1614;DHT22;800;48.824;9.346;2022-12-17T03:45:22;2.40;52.40
1614;DHT22;800;48.824;9.346;2022-12-17T03:48:11;2.40;52.60
1614;DHT22;800;48.824;9.346;2022-12-17T03:50:56;2.40;52.60
1614;DHT22;800;48.824;9.346;2022-12-17T03:53:41;2.40;52.30
1614;DHT22;800;48.824;9.346;2022-12-17T03:56:25;2.40;52.80
1614;DHT22;800;48.824;9.346;2022-12-17T03:59:10;2.40;52.80
1614;DHT22;800;48.824;9.346;2022-12-17T04:01:55;2.40;53.00
1614;DHT22;800;48.824;9.346;2022-12-17T04:04:39;2.50;53.00
1614;DHT22;800;48.824;9.346;2022-12-17T04:07:23;2.60;53.30
1614;DHT22;800;48.824;9.346;2022-12-17T04:10:07;2.60;53.20
1614;DHT22;800;48.824;9.346;2022-12-17T04:12:52;2.60;53.40
1614;DHT22;800;48.824;9.346;2022-12-17T04:15:53;2.60;54.10
1614;DHT22;800;48.824;9.346;2022-12-17T04:18:37;2.60;54.50
1614;DHT22;800;48.824;9.346;2022-12-17T04:21:21;2.70;54.70
1614;DHT22;800;48.824;9.346;2022-12-17T04:24:05;2.70;54.90
1614;DHT22;800;48.824;9.346;2022-12-17T04:26:49;2.80;54.90
1614;DHT22;800;48.824;9.346;2022-12-17T04:29:33;2.80;55.10
1614;DHT22;800;48.824;9.346;2022-12-17T04:32:17;2.80;55.10
1614;DHT22;800;48.824;9.346;2022-12-17T04:35:02;2.80;55.30
1614;DHT22;800;48.824;9.346;2022-12-17T04:37:46;2.90;55.20
1614;DHT22;800;48.824;9.346;2022-12-17T04:40:30;2.90;54.90
1614;DHT22;800;48.824;9.346;2022-12-17T04:43:15;2.90;54.10
1614;DHT22;800;48.824;9.346;2022-12-17T04:45:59;3.00;53.80
1614;DHT22;800;48.824;9.346;2022-12-17T04:48:43;3.00;53.30
1614;DHT22;800;48.824;9.346;2022-12-17T04:51:27;2.90;53.40
1614;DHT22;800;48.824;9.346;2022-12-17T04:54:11;2.90;53.60
1614;DHT22;800;48.824;9.346;2022-12-17T04:56:55;2.90;53.80
1614;DHT22;800;48.824;9.346;2022-12-17T04:59:39;2.90;53.80
1614;DHT22;800;48.824;9.346;2022-12-17T05:02:23;2.90;53.80
1614;DHT22;800;48.824;9.346;2022-12-17T05:05:08;2.90;53.90
1614;DHT22;800;48.824;9.346;2022-12-17T05:07:56;2.90;54.00
1614;DHT22;800;48.824;9.346;2022-12-17T05:10:41;2.90;54.30
1614;DHT22;800;48.824;9.346;2022-12-17T05:13:25;2.90;54.50
1614;DHT22;800;48.824;9.346;2022-12-17T05:16:09;2.90;54.80
1614;DHT22;800;48.824;9.346;2022-12-17T05:18:53;3.00;54.90
1614;DHT22;800;48.824;9.346;2022-12-17T05:21:37;3.00;55.00
1614;DHT22;800;48.824;9.346;2022-12-17T05:24:21;3.00;54.80
1614;DHT22;800;48.824;9.346;2022-12-17T05:27:05;2.80;54.90
1614;DHT22;800;48.824;9.346;2022-12-17T05:29:49;2.70;55.80
1614;DHT22;800;48.824;9.346;2022-12-17T05:32:33;2.70;55.40
1614;DHT22;800;48.824;9.346;2022-12-17T05:35:17;2.80;55.30
1614;DHT22;800;48.824;9.346;2022-12-17T05:38:07;2.80;55.40
1614;DHT22;800;48.824;9.346;2022-12-17T05:40:55;2.80;55.40
1614;DHT22;800;48.824;9.346;2022-12-17T05:43:40;2.80;55.50
1614;DHT22;800;48.824;9.346;2022-12-17T05:46:24;2.80;55.60
1614;DHT22;800;48.824;9.346;2022-12-17T05:49:08;2.90;55.70
1614;DHT22;800;48.824;9.346;2022-12-17T05:51:52;2.90;55.70
1614;DHT22;800;48.824;9.346;2022-12-17T05:54:36;3.00;55.70
1614;DHT22;800;48.824;9.346;2022-12-17T05:57:20;3.00;55.50
1614;DHT22;800;48.824;9.346;2022-12-17T06:00:05;3.00;55.20
1614;DHT22;800;48.824;9.346;2022-12-17T06:03:02;2.80;54.80
1614;DHT22;800;48.824;9.346;2022-12-17T06:05:47;2.50;55.40
1614;DHT22;800;48.824;9.346;2022-12-17T06:08:42;2.60;55.70
1614;DHT22;800;48.824;9.346;2022-12-17T06:11:26;2.40;54.90
1614;DHT22;800;48.824;9.346;2022-12-17T06:14:10;2.50;55.30
1614;DHT22;800;48.824;9.346;2022-12-17T06:16:54;2.70;55.50
1614;DHT22;800;48.824;9.346;2022-12-17T06:19:38;2.70;55.30
1614;DHT22;800;48.824;9.346;2022-12-17T06:22:22;2.80;55.10
1614;DHT22;800;48.824;9.346;2022-12-17T06:25:07;2.90;55.00
1614;DHT22;800;48.824;9.346;2022-12-17T06:28:01;3.10;56.40
1614;DHT22;800;48.824;9.346;2022-12-17T06:30:50;3.60;57.50
1614;DHT22;800;48.824;9.346;2022-12-17T06:33:34;3.80;55.40
1614;DHT22;800;48.824;9.346;2022-12-17T06:36:18;3.80;53.90
1614;DHT22;800;48.824;9.346;2022-12-17T06:39:02;3.70;53.50
1614;DHT22;800;48.824;9.346;2022-12-17T06:41:46;3.60;53.30
1614;DHT22;800;48.824;9.346;2022-12-17T06:44:31;3.50;53.10
1614;DHT22;800;48.824;9.346;2022-12-17T06:47:15;3.40;53.00
1614;DHT22;800;48.824;9.346;2022-12-17T06:49:59;3.30;53.00
1614;DHT22;800;48.824;9.346;2022-12-17T06:52:43;3.30;53.10
1614;DHT22;800;48.824;9.346;2022-12-17T06:55:38;3.20;52.90
1614;DHT22;800;48.824;9.346;2022-12-17T06:58:22;2.80;52.90
1614;DHT22;800;48.824;9.346;2022-12-17T07:01:06;2.70;53.70
1614;DHT22;800;48.824;9.346;2022-12-17T07:03:50;2.70;53.80
1614;DHT22;800;48.824;9.346;2022-12-17T07:06:35;2.70;53.60
1614;DHT22;800;48.824;9.346;2022-12-17T07:09:20;2.60;53.70
1614;DHT22;800;48.824;9.346;2022-12-17T07:12:04;2.40;53.80
1614;DHT22;800;48.824;9.346;2022-12-17T07:14:48;2.40;53.80
1614;DHT22;800;48.824;9.346;2022-12-17T07:17:32;2.30;54.20
1614;DHT22;800;48.824;9.346;2022-12-17T07:20:16;2.20;54.60
1614;DHT22;800;48.824;9.346;2022-12-17T07:23:00;2.10;54.90
1614;DHT22;800;48.824;9.346;2022-12-17T07:25:44;2.20;54.90
1614;DHT22;800;48.824;9.346;2022-12-17T07:28:28;2.40;54.90
1614;DHT22;800;48.824;9.346;2022-12-17T07:31:12;2.10;54.60
1614;DHT22;800;48.824;9.346;2022-12-17T07:33:56;1.80;54.80
1614;DHT22;800;48.824;9.346;2022-12-17T07:36:40;1.60;55.20
1614;DHT22;800;48.824;9.346;2022-12-17T07:39:24;1.50;55.40
1614;DHT22;800;48.824;9.346;2022-12-17T07:42:08;1.60;55.30
1614;DHT22;800;48.824;9.346;2022-12-17T07:44:52;1.70;55.40
1614;DHT22;800;48.824;9.346;2022-12-17T07:47:36;1.50;55.20
1614;DHT22;800;48.824;9.346;2022-12-17T07:50:22;1.10;56.40
1614;DHT22;800;48.824;9.346;2022-12-17T07:53:06;1.40;57.00
1614;DHT22;800;48.824;9.346;2022-12-17T07:55:50;1.40;56.10
1614;DHT22;800;48.824;9.346;2022-12-17T07:58:34;1.30;56.50
1614;DHT22;800;48.824;9.346;2022-12-17T08:01:18;1.20;56.70
1614;DHT22;800;48.824;9.346;2022-12-17T08:04:03;1.40;56.90
1614;DHT22;800;48.824;9.346;2022-12-17T08:06:47;1.60;56.50
1614;DHT22;800;48.824;9.346;2022-12-17T08:09:31;1.60;56.00
1614;DHT22;800;48.824;9.346;2022-12-17T08:12:15;1.60;55.80
1614;DHT22;800;48.824;9.346;2022-12-17T08:14:59;1.50;55.60
1614;DHT22;800;48.824;9.346;2022-12-17T08:17:43;1.30;56.50
1614;DHT22;800;48.824;9.346;2022-12-17T08:20:27;1.50;57.10
1614;DHT22;800;48.824;9.346;2022-12-17T08:23:11;1.60;56.30
1614;DHT22;800;48.824;9.346;2022-12-17T08:25:55;1.60;56.40
1614;DHT22;800;48.824;9.346;2022-12-17T08:28:39;1.50;56.30
1614;DHT22;800;48.824;9.346;2022-12-17T08:31:23;1.60;56.40
1614;DHT22;800;48.824;9.346;2022-12-17T08:34:08;1.70;56.10
1614;DHT22;800;48.824;9.346;2022-12-17T08:36:52;1.90;56.00
1614;DHT22;800;48.824;9.346;2022-12-17T08:39:36;2.00;55.80
1614;DHT22;800;48.824;9.346;2022-12-17T08:42:20;1.90;55.80
1614;DHT22;800;48.824;9.346;2022-12-17T08:45:05;2.10;55.40
1614;DHT22;800;48.824;9.346;2022-12-17T08:47:50;2.20;54.90
1614;DHT22;800;48.824;9.346;2022-12-17T08:50:34;2.30;54.50
1614;DHT22;800;48.824;9.346;2022-12-17T08:53:18;2.30;54.70
1614;DHT22;800;48.824;9.346;2022-12-17T08:56:01;2.30;54.40
1614;DHT22;800;48.824;9.346;2022-12-17T08:58:46;2.40;54.40
1614;DHT22;800;48.824;9.346;2022-12-17T09:01:29;2.50;54.00
1614;DHT22;800;48.824;9.346;2022-12-17T09:04:14;2.50;53.90
1614;DHT22;800;48.824;9.346;2022-12-17T09:06:57;2.50;54.20
1614;DHT22;800;48.824;9.346;2022-12-17T09:09:42;2.40;54.00
1614;DHT22;800;48.824;9.346;2022-12-17T09:12:26;2.10;54.00
1614;DHT22;800;48.824;9.346;2022-12-17T09:15:10;2.10;54.70
1614;DHT22;800;48.824;9.346;2022-12-17T09:17:54;2.10;54.90
1614;DHT22;800;48.824;9.346;2022-12-17T09:20:38;1.70;55.70
1614;DHT22;800;48.824;9.346;2022-12-17T09:23:22;1.80;55.90
1614;DHT22;800;48.824;9.346;2022-12-17T09:26:06;2.10;55.50
1614;DHT22;800;48.824;9.346;2022-12-17T09:28:50;2.20;55.10
1614;DHT22;800;48.824;9.346;2022-12-17T09:31:34;2.30;54.50
1614;DHT22;800;48.824;9.346;2022-12-17T09:34:18;2.30;54.50
1614;DHT22;800;48.824;9.346;2022-12-17T09:37:03;2.30;54.30
1614;DHT22;800;48.824;9.346;2022-12-17T09:39:47;2.40;53.90
1614;DHT22;800;48.824;9.346;2022-12-17T09:42:54;2.50;53.80
1614;DHT22;800;48.824;9.346;2022-12-17T09:48:32;2.60;53.80
1614;DHT22;800;48.824;9.346;2022-12-17T09:51:24;2.20;54.40
1614;DHT22;800;48.824;9.346;2022-12-17T09:54:28;2.30;54.50
1614;DHT22;800;48.824;9.346;2022-12-17T09:57:19;2.60;54.90
1614;DHT22;800;48.824;9.346;2022-12-17T10:00:20;2.70;54.50
1614;DHT22;800;48.824;9.346;2022-12-17T10:03:19;2.90;54.10
1614;DHT22;800;48.824;9.346;2022-12-17T10:09:05;3.10;53.20
1614;DHT22;800;48.824;9.346;2022-12-17T10:11:52;3.20;53.10
1614;DHT22;800;48.824;9.346;2022-12-17T10:14:36;3.20;52.50
1614;DHT22;800;48.824;9.346;2022-12-17T10:17:22;3.20;52.20
1614;DHT22;800;48.824;9.346;2022-12-17T10:20:21;3.10;52.40
1614;DHT22;800;48.824;9.346;2022-12-17T10:23:06;2.90;52.90
1614;DHT22;800;48.824;9.346;2022-12-17T10:25:55;3.00;53.20
1614;DHT22;800;48.824;9.346;2022-12-17T10:28:40;2.90;53.40
1614;DHT22;800;48.824;9.346;2022-12-17T10:31:28;3.00;52.90
1614;DHT22;800;48.824;9.346;2022-12-17T10:34:15;3.20;52.80
1614;DHT22;800;48.824;9.346;2022-12-17T10:37:01;3.20;53.10
1614;DHT22;800;48.824;9.346;2022-12-17T10:39:59;3.30;53.10
1614;DHT22;800;48.824;9.346;2022-12-17T10:42:43;3.40;52.40
1614;DHT22;800;48.824;9.346;2022-12-17T10:45:31;3.50;52.40
1614;DHT22;800;48.824;9.346;2022-12-17T10:48:28;3.50;52.20
1614;DHT22;800;48.824;9.346;2022-12-17T10:51:35;3.50;52.30
1614;DHT22;800;48.824;9.346;2022-12-17T10:54:28;3.60;52.10
1614;DHT22;800;48.824;9.346;2022-12-17T10:57:32;3.70;51.70
1614;DHT22;800;48.824;9.346;2022-12-17T11:03:01;3.70;51.00
1614;DHT22;800;48.824;9.346;2022-12-17T11:05:48;3.30;51.30
1614;DHT22;800;48.824;9.346;2022-12-17T11:08:34;3.40;52.20
1614;DHT22;800;48.824;9.346;2022-12-17T11:11:19;3.50;52.20
1614;DHT22;800;48.824;9.346;2022-12-17T11:14:04;3.60;52.00
1614;DHT22;800;48.824;9.346;2022-12-17T11:16:53;3.40;52.20
1614;DHT22;800;48.824;9.346;2022-12-17T11:20:07;3.30;52.50
1614;DHT22;800;48.824;9.346;2022-12-17T11:22:58;3.00;52.90
1614;DHT22;800;48.824;9.346;2022-12-17T11:29:12;3.40;52.90
1614;DHT22;800;48.824;9.346;2022-12-17T11:32:20;3.70;52.50
1614;DHT22;800;48.824;9.346;2022-12-17T11:35:27;3.80;51.70
1614;DHT22;800;48.824;9.346;2022-12-17T11:50:39;4.20;50.80
1614;DHT22;800;48.824;9.346;2022-12-17T11:53:51;4.30;50.80
1614;DHT22;800;48.824;9.346;2022-12-17T11:56:41;4.30;51.00
1614;DHT22;800;48.824;9.346;2022-12-17T12:02:33;4.10;50.90
1614;DHT22;800;48.824;9.346;2022-12-17T12:05:46;4.20;51.10
1614;DHT22;800;48.824;9.346;2022-12-17T12:09:22;4.20;51.40
1614;DHT22;800;48.824;9.346;2022-12-17T12:27:21;4.50;50.60
1614;DHT22;800;48.824;9.346;2022-12-17T12:30:28;4.50;50.70
1614;DHT22;800;48.824;9.346;2022-12-17T12:33:39;4.40;50.70
1614;DHT22;800;48.824;9.346;2022-12-17T12:36:26;4.40;50.50
1614;DHT22;800;48.824;9.346;2022-12-17T12:39:12;4.50;50.30
1614;DHT22;800;48.824;9.346;2022-12-17T12:42:14;4.60;50.50
1614;DHT22;800;48.824;9.346;2022-12-17T12:45:28;4.30;50.20
1614;DHT22;800;48.824;9.346;2022-12-17T12:51:27;4.30;50.40
1614;DHT22;800;48.824;9.346;2022-12-17T12:57:33;4.70;50.70
1614;DHT22;800;48.824;9.346;2022-12-17T13:00:39;4.70;50.20
1614;DHT22;800;48.824;9.346;2022-12-17T13:06:52;4.90;49.70
1614;DHT22;800;48.824;9.346;2022-12-17T13:14:33;5.00;49.60
1614;DHT22;800;48.824;9.346;2022-12-17T13:19:40;5.10;49.70
1614;DHT22;800;48.824;9.346;2022-12-17T13:24:42;5.20;49.40
1614;DHT22;800;48.824;9.346;2022-12-17T13:27:30;5.20;49.00
1614;DHT22;800;48.824;9.346;2022-12-17T13:38:16;5.60;48.60
1614;DHT22;800;48.824;9.346;2022-12-17T13:43:36;5.60;48.00
1614;DHT22;800;48.824;9.346;2022-12-17T13:46:03;5.60;48.00
1614;DHT22;800;48.824;9.346;2022-12-17T13:48:28;5.60;48.10
1614;DHT22;800;48.824;9.346;2022-12-17T13:51:00;5.60;48.00
1614;DHT22;800;48.824;9.346;2022-12-17T13:53:28;5.70;48.20
1614;DHT22;800;48.824;9.346;2022-12-17T13:55:56;5.60;48.00
1614;DHT22;800;48.824;9.346;2022-12-17T13:58:31;5.70;48.10
1614;DHT22;800;48.824;9.346;2022-12-17T14:01:05;5.70;48.20
1614;DHT22;800;48.824;9.346;2022-12-17T14:03:31;5.70;48.00
1614;DHT22;800;48.824;9.346;2022-12-17T14:05:57;5.70;47.80
1614;DHT22;800;48.824;9.346;2022-12-17T14:08:27;5.70;47.60
1614;DHT22;800;48.824;9.346;2022-12-17T14:10:53;5.70;47.70
1614;DHT22;800;48.824;9.346;2022-12-17T14:13:41;5.80;47.60
1614;DHT22;800;48.824;9.346;2022-12-17T14:16:07;5.70;47.80
1614;DHT22;800;48.824;9.346;2022-12-17T14:18:33;5.80;47.80
1614;DHT22;800;48.824;9.346;2022-12-17T14:20:59;5.80;47.70
1614;DHT22;800;48.824;9.346;2022-12-17T14:23:29;5.80;47.70
1614;DHT22;800;48.824;9.346;2022-12-17T14:25:56;5.80;47.70
1614;DHT22;800;48.824;9.346;2022-12-17T14:28:34;5.90;47.60
1614;DHT22;800;48.824;9.346;2022-12-17T14:33:41;5.90;47.40
1614;DHT22;800;48.824;9.346;2022-12-17T14:36:18;5.90;47.30
1614;DHT22;800;48.824;9.346;2022-12-17T14:38:56;5.80;47.30
1614;DHT22;800;48.824;9.346;2022-12-17T14:41:22;5.80;47.40
1614;DHT22;800;48.824;9.346;2022-12-17T14:44:17;5.70;47.30
1614;DHT22;800;48.824;9.346;2022-12-17T14:46:43;5.60;47.50
1614;DHT22;800;48.824;9.346;2022-12-17T14:49:17;5.60;47.40
1614;DHT22;800;48.824;9.346;2022-12-17T14:51:44;5.60;47.40
1614;DHT22;800;48.824;9.346;2022-12-17T14:56:39;5.50;47.40
1614;DHT22;800;48.824;9.346;2022-12-17T14:59:22;5.50;47.40
1614;DHT22;800;48.824;9.346;2022-12-17T15:01:48;5.40;47.40
1614;DHT22;800;48.824;9.346;2022-12-17T15:04:15;5.30;47.40
1614;DHT22;800;48.824;9.346;2022-12-17T15:06:41;5.30;47.50
1614;DHT22;800;48.824;9.346;2022-12-17T15:09:10;5.20;48.30
1614;DHT22;800;48.824;9.346;2022-12-17T15:11:36;5.10;48.00
1614;DHT22;800;48.824;9.346;2022-12-17T15:14:01;5.00;47.80
1614;DHT22;800;48.824;9.346;2022-12-17T15:16:27;4.90;48.10
1614;DHT22;800;48.824;9.346;2022-12-17T15:18:53;4.90;48.70
1614;DHT22;800;48.824;9.346;2022-12-17T15:21:19;4.80;49.20
1614;DHT22;800;48.824;9.346;2022-12-17T15:23:45;4.70;48.70
1614;DHT22;800;48.824;9.346;2022-12-17T15:26:11;4.70;48.80
1614;DHT22;800;48.824;9.346;2022-12-17T15:28:40;4.60;48.80
1614;DHT22;800;48.824;9.346;2022-12-17T15:31:07;4.50;48.70
1614;DHT22;800;48.824;9.346;2022-12-17T15:33:33;4.40;48.70
1614;DHT22;800;48.824;9.346;2022-12-17T15:35:58;4.30;48.70
1614;DHT22;800;48.824;9.346;2022-12-17T15:38:24;4.20;48.70
1614;DHT22;800;48.824;9.346;2022-12-17T15:40:49;4.10;48.60
1614;DHT22;800;48.824;9.346;2022-12-17T15:43:15;4.10;48.90
1614;DHT22;800;48.824;9.346;2022-12-17T15:45:46;4.00;49.20
1614;DHT22;800;48.824;9.346;2022-12-17T15:48:15;4.00;49.80
1614;DHT22;800;48.824;9.346;2022-12-17T15:50:41;3.90;49.90
1614;DHT22;800;48.824;9.346;2022-12-17T15:53:07;3.90;49.90
1614;DHT22;800;48.824;9.346;2022-12-17T15:55:34;3.90;49.80
1614;DHT22;800;48.824;9.346;2022-12-17T15:58:00;3.90;49.90
1614;DHT22;800;48.824;9.346;2022-12-17T16:00:26;3.80;50.20
1614;DHT22;800;48.824;9.346;2022-12-17T16:02:51;3.70;50.00
1614;DHT22;800;48.824;9.346;2022-12-17T16:05:17;3.70;50.10
1614;DHT22;800;48.824;9.346;2022-12-17T16:07:43;3.60;50.10
1614;DHT22;800;48.824;9.346;2022-12-17T16:10:10;3.60;50.40
1614;DHT22;800;48.824;9.346;2022-12-17T16:12:36;3.60;50.50
1614;DHT22;800;48.824;9.346;2022-12-17T16:15:02;3.50;50.40
1614;DHT22;800;48.824;9.346;2022-12-17T16:17:28;3.50;50.20
1614;DHT22;800;48.824;9.346;2022-12-17T16:19:54;3.50;50.30
1614;DHT22;800;48.824;9.346;2022-12-17T16:22:19;3.40;50.30
1614;DHT22;800;48.824;9.346;2022-12-17T16:24:45;3.40;50.40
1614;DHT22;800;48.824;9.346;2022-12-17T16:27:12;3.40;50.20
1614;DHT22;800;48.824;9.346;2022-12-17T16:29:37;3.40;49.60
1614;DHT22;800;48.824;9.346;2022-12-17T16:32:03;3.30;48.90
1614;DHT22;800;48.824;9.346;2022-12-17T16:34:29;3.20;48.40
1614;DHT22;800;48.824;9.346;2022-12-17T16:36:54;3.10;48.50
1614;DHT22;800;48.824;9.346;2022-12-17T16:39:20;3.00;48.60
1614;DHT22;800;48.824;9.346;2022-12-17T16:41:46;2.90;48.90
1614;DHT22;800;48.824;9.346;2022-12-17T16:44:11;2.90;49.20
1614;DHT22;800;48.824;9.346;2022-12-17T16:46:40;2.80;49.40
1614;DHT22;800;48.824;9.346;2022-12-17T16:49:15;2.80;49.80
1614;DHT22;800;48.824;9.346;2022-12-17T16:51:43;2.80;49.80
1614;DHT22;800;48.824;9.346;2022-12-17T16:54:18;2.80;50.00
1614;DHT22;800;48.824;9.346;2022-12-17T16:56:45;2.70;50.30
1614;DHT22;800;48.824;9.346;2022-12-17T16:59:12;2.80;50.40
1614;DHT22;800;48.824;9.346;2022-12-17T17:01:40;2.70;50.20
1614;DHT22;800;48.824;9.346;2022-12-17T17:04:08;2.70;50.00
1614;DHT22;800;48.824;9.346;2022-12-17T17:06:48;2.70;50.20
1614;DHT22;800;48.824;9.346;2022-12-17T17:09:15;2.70;49.90
1614;DHT22;800;48.824;9.346;2022-12-17T17:11:41;2.60;49.70
1614;DHT22;800;48.824;9.346;2022-12-17T17:14:07;2.60;49.80
1614;DHT22;800;48.824;9.346;2022-12-17T17:16:34;2.60;49.80
1614;DHT22;800;48.824;9.346;2022-12-17T17:19:00;2.50;49.60
1614;DHT22;800;48.824;9.346;2022-12-17T17:21:35;2.40;49.60
1614;DHT22;800;48.824;9.346;2022-12-17T17:24:07;2.30;49.60
1614;DHT22;800;48.824;9.346;2022-12-17T17:26:34;2.30;49.80
1614;DHT22;800;48.824;9.346;2022-12-17T17:29:00;2.30;49.90
1614;DHT22;800;48.824;9.346;2022-12-17T17:31:26;2.20;50.20
1614;DHT22;800;48.824;9.346;2022-12-17T17:33:52;2.30;50.50
1614;DHT22;800;48.824;9.346;2022-12-17T17:36:26;2.20;50.60
1614;DHT22;800;48.824;9.346;2022-12-17T17:39:02;2.10;50.70
1614;DHT22;800;48.824;9.346;2022-12-17T17:41:29;2.10;50.60
1614;DHT22;800;48.824;9.346;2022-12-17T17:44:00;2.10;50.50
1614;DHT22;800;48.824;9.346;2022-12-17T17:46:27;2.20;50.30
1614;DHT22;800;48.824;9.346;2022-12-17T17:48:56;2.20;50.20
1614;DHT22;800;48.824;9.346;2022-12-17T17:51:24;2.20;50.10
1614;DHT22;800;48.824;9.346;2022-12-17T17:53:52;2.10;50.10
1614;DHT22;800;48.824;9.346;2022-12-17T17:56:20;2.10;50.00
1614;DHT22;800;48.824;9.346;2022-12-17T17:59:07;2.10;49.70
1614;DHT22;800;48.824;9.346;2022-12-17T18:01:35;2.00;49.50
1614;DHT22;800;48.824;9.346;2022-12-17T18:04:02;1.90;49.60
1614;DHT22;800;48.824;9.346;2022-12-17T18:06:28;1.90;49.70
1614;DHT22;800;48.824;9.346;2022-12-17T18:08:55;2.00;49.90
1614;DHT22;800;48.824;9.346;2022-12-17T18:11:22;1.90;50.10
1614;DHT22;800;48.824;9.346;2022-12-17T18:13:48;1.90;50.10
1614;DHT22;800;48.824;9.346;2022-12-17T18:16:31;1.90;50.20
1614;DHT22;800;48.824;9.346;2022-12-17T18:18:59;1.80;50.10
1614;DHT22;800;48.824;9.346;2022-12-17T18:21:26;1.80;49.80
1614;DHT22;800;48.824;9.346;2022-12-17T18:24:15;1.70;49.80
1614;DHT22;800;48.824;9.346;2022-12-17T18:26:43;1.70;49.90
1614;DHT22;800;48.824;9.346;2022-12-17T18:29:19;1.60;49.80
1614;DHT22;800;48.824;9.346;2022-12-17T18:31:45;1.60;50.10
1614;DHT22;800;48.824;9.346;2022-12-17T18:34:15;1.70;50.00
1614;DHT22;800;48.824;9.346;2022-12-17T18:36:42;1.50;49.60
1614;DHT22;800;48.824;9.346;2022-12-17T18:39:14;1.50;49.50
1614;DHT22;800;48.824;9.346;2022-12-17T18:41:40;1.50;49.70
1614;DHT22;800;48.824;9.346;2022-12-17T18:44:26;1.40;49.70
1614;DHT22;800;48.824;9.346;2022-12-17T18:46:52;1.50;50.10
1614;DHT22;800;48.824;9.346;2022-12-17T18:49:19;1.50;50.20
1614;DHT22;800;48.824;9.346;2022-12-17T18:51:47;1.50;50.30
1614;DHT22;800;48.824;9.346;2022-12-17T18:54:18;1.40;50.10
1614;DHT22;800;48.824;9.346;2022-12-17T18:56:44;1.40;50.20
1614;DHT22;800;48.824;9.346;2022-12-17T18:59:15;1.40;50.20
1614;DHT22;800;48.824;9.346;2022-12-17T19:01:42;1.40;49.90
1614;DHT22;800;48.824;9.346;2022-12-17T19:04:11;1.40;50.50
1614;DHT22;800;48.824;9.346;2022-12-17T19:06:38;1.40;50.10
1614;DHT22;800;48.824;9.346;2022-12-17T19:09:05;1.30;50.00
1614;DHT22;800;48.824;9.346;2022-12-17T19:11:31;1.20;50.00
1614;DHT22;800;48.824;9.346;2022-12-17T19:13:58;1.30;50.20
1614;DHT22;800;48.824;9.346;2022-12-17T19:16:25;1.30;49.90
1614;DHT22;800;48.824;9.346;2022-12-17T19:18:56;1.30;49.80
1614;DHT22;800;48.824;9.346;2022-12-17T19:21:23;1.30;49.70
1614;DHT22;800;48.824;9.346;2022-12-17T19:23:49;1.30;49.50
1614;DHT22;800;48.824;9.346;2022-12-17T19:26:19;1.20;49.40
1614;DHT22;800;48.824;9.346;2022-12-17T19:28:50;1.10;49.50
1614;DHT22;800;48.824;9.346;2022-12-17T19:31:18;1.10;49.80